sensor_id;sensor_type;location;lat;lon;timestamp;pressure;altitude;pressure_sealevel;temperature
30001;BMP280;16845;48.670;9.000;2023-11-19T00:01:14;95440.00;;;9.64
30001;BMP280;16845;48.670;9.000;2023-11-19T00:04:30;95435.50;;;9.77
30001;BMP280;16845;48.670;9.000;2023-11-19T00:07:46;95425.47;;;9.77
30001;BMP280;16845;48.670;9.000;2023-11-19T00:11:04;95415.63;;;9.69
30001;BMP280;16845;48.670;9.000;2023-11-19T00:14:21;95409.75;;;10.01
30001;BMP280;16845;48.670;9.000;2023-11-19T00:17:38;95408.06;;;10.03
30001;BMP280;16845;48.670;9.000;2023-11-19T00:20:53;95404.25;;;9.88
30001;BMP280;16845;48.670;9.000;2023-11-19T00:24:09;95406.50;;;9.97
30001;BMP280;16845;48.670;9.000;2023-11-19T00:27:25;95412.84;;;9.80
30001;BMP280;16845;48.670;9.000;2023-11-19T00:30:43;95411.41;;;10.00
30001;BMP280;16845;48.670;9.000;2023-11-19T00:33:58;95396.38;;;10.02
30001;BMP280;16845;48.670;9.000;2023-11-19T00:37:14;95383.34;;;10.18
30001;BMP280;16845;48.670;9.000;2023-11-19T00:40:30;95385.41;;;10.06
30001;BMP280;16845;48.670;9.000;2023-11-19T00:43:47;95383.53;;;10.40
30001;BMP280;16845;48.670;9.000;2023-11-19T00:47:05;95368.19;;;10.23
30001;BMP280;16845;48.670;9.000;2023-11-19T00:50:20;95366.31;;;10.29
30001;BMP280;16845;48.670;9.000;2023-11-19T00:53:36;95364.38;;;10.37
30001;BMP280;16845;48.670;9.000;2023-11-19T00:56:53;95363.97;;;10.49
30001;BMP280;16845;48.670;9.000;2023-11-19T01:00:09;95358.06;;;10.52
30001;BMP280;16845;48.670;9.000;2023-11-19T01:03:27;95349.81;;;10.74
30001;BMP280;16845;48.670;9.000;2023-11-19T01:06:42;95348.00;;;10.53
30001;BMP280;16845;48.670;9.000;2023-11-19T01:10:00;95335.00;;;10.67
30001;BMP280;16845;48.670;9.000;2023-11-19T01:13:15;95353.34;;;10.69
30001;BMP280;16845;48.670;9.000;2023-11-19T01:16:32;95352.13;;;10.54
30001;BMP280;16845;48.670;9.000;2023-11-19T01:19:50;95346.72;;;10.66
30001;BMP280;16845;48.670;9.000;2023-11-19T01:23:05;95336.84;;;10.62
30001;BMP280;16845;48.670;9.000;2023-11-19T01:26:21;95329.03;;;10.71
30001;BMP280;16845;48.670;9.000;2023-11-19T01:29:37;95325.34;;;10.81
30001;BMP280;16845;48.670;9.000;2023-11-19T01:32:54;95319.44;;;10.82
30001;BMP280;16845;48.670;9.000;2023-11-19T01:36:14;95320.22;;;10.84
30001;BMP280;16845;48.670;9.000;2023-11-19T01:39:29;95328.50;;;10.86
30001;BMP280;16845;48.670;9.000;2023-11-19T01:42:45;95330.50;;;11.01
30001;BMP280;16845;48.670;9.000;2023-11-19T01:46:02;95330.34;;;11.05
30001;BMP280;16845;48.670;9.000;2023-11-19T01:49:19;95329.59;;;11.03
30001;BMP280;16845;48.670;9.000;2023-11-19T01:52:37;95331.34;;;11.01
30001;BMP280;16845;48.670;9.000;2023-11-19T01:55:53;95321.03;;;11.09
30001;BMP280;16845;48.670;9.000;2023-11-19T01:59:11;95320.03;;;11.13
30001;BMP280;16845;48.670;9.000;2023-11-19T02:02:27;95316.47;;;11.20
30001;BMP280;16845;48.670;9.000;2023-11-19T02:05:43;95308.53;;;11.07
30001;BMP280;16845;48.670;9.000;2023-11-19T02:09:02;95308.06;;;11.21
30001;BMP280;16845;48.670;9.000;2023-11-19T02:12:17;95312.31;;;11.19
30001;BMP280;16845;48.670;9.000;2023-11-19T02:15:34;95307.19;;;11.22
30001;BMP280;16845;48.670;9.000;2023-11-19T02:18:50;95309.69;;;11.22
30001;BMP280;16845;48.670;9.000;2023-11-19T02:22:06;95311.47;;;11.18
30001;BMP280;16845;48.670;9.000;2023-11-19T02:25:30;95299.47;;;11.26
30001;BMP280;16845;48.670;9.000;2023-11-19T02:28:49;95287.22;;;11.42
30001;BMP280;16845;48.670;9.000;2023-11-19T02:32:05;95297.31;;;11.40
30001;BMP280;16845;48.670;9.000;2023-11-19T02:35:20;95296.09;;;11.27
30001;BMP280;16845;48.670;9.000;2023-11-19T02:38:36;95294.69;;;11.20
30001;BMP280;16845;48.670;9.000;2023-11-19T02:41:52;95301.28;;;11.46
30001;BMP280;16845;48.670;9.000;2023-11-19T02:45:11;95294.53;;;11.48
30001;BMP280;16845;48.670;9.000;2023-11-19T02:48:26;95304.34;;;11.54
30001;BMP280;16845;48.670;9.000;2023-11-19T02:51:42;95319.38;;;11.55
30001;BMP280;16845;48.670;9.000;2023-11-19T02:54:58;95308.28;;;11.38
30001;BMP280;16845;48.670;9.000;2023-11-19T02:58:16;95303.94;;;11.66
30001;BMP280;16845;48.670;9.000;2023-11-19T03:01:33;95297.56;;;11.56
30001;BMP280;16845;48.670;9.000;2023-11-19T03:04:48;95302.44;;;11.62
30001;BMP280;16845;48.670;9.000;2023-11-19T03:08:04;95307.00;;;11.73
30001;BMP280;16845;48.670;9.000;2023-11-19T03:11:21;95305.38;;;11.73
30001;BMP280;16845;48.670;9.000;2023-11-19T03:14:37;95308.25;;;11.62
30001;BMP280;16845;48.670;9.000;2023-11-19T03:17:55;95314.66;;;11.71
30001;BMP280;16845;48.670;9.000;2023-11-19T03:21:10;95310.59;;;11.67
30001;BMP280;16845;48.670;9.000;2023-11-19T03:24:27;95312.44;;;11.39
30001;BMP280;16845;48.670;9.000;2023-11-19T03:27:44;95309.53;;;11.49
30001;BMP280;16845;48.670;9.000;2023-11-19T03:30:59;95303.22;;;11.62
30001;BMP280;16845;48.670;9.000;2023-11-19T03:34:17;95307.22;;;11.68
30001;BMP280;16845;48.670;9.000;2023-11-19T03:37:32;95305.06;;;11.59
30001;BMP280;16845;48.670;9.000;2023-11-19T14:21:06;95217.56;;;16.87
30001;BMP280;16845;48.670;9.000;2023-11-19T14:23:32;95226.50;;;16.65
30001;BMP280;16845;48.670;9.000;2023-11-19T14:25:59;95225.47;;;16.23
30001;BMP280;16845;48.670;9.000;2023-11-19T14:28:25;95230.41;;;16.26
30001;BMP280;16845;48.670;9.000;2023-11-19T14:30:52;95227.78;;;16.12
30001;BMP280;16845;48.670;9.000;2023-11-19T14:33:18;95224.41;;;15.97
30001;BMP280;16845;48.670;9.000;2023-11-19T14:35:45;95225.91;;;16.00
30001;BMP280;16845;48.670;9.000;2023-11-19T14:38:13;95232.69;;;15.53
30001;BMP280;16845;48.670;9.000;2023-11-19T14:40:39;95233.44;;;15.70
30001;BMP280;16845;48.670;9.000;2023-11-19T14:43:08;95235.66;;;15.61
30001;BMP280;16845;48.670;9.000;2023-11-19T14:45:35;95246.66;;;15.60
30001;BMP280;16845;48.670;9.000;2023-11-19T14:48:13;95247.88;;;15.53
30001;BMP280;16845;48.670;9.000;2023-11-19T14:50:39;95233.50;;;15.05
30001;BMP280;16845;48.670;9.000;2023-11-19T14:53:06;95241.34;;;15.16
30001;BMP280;16845;48.670;9.000;2023-11-19T14:55:33;95230.97;;;15.05
30001;BMP280;16845;48.670;9.000;2023-11-19T14:58:00;95238.34;;;14.76
30001;BMP280;16845;48.670;9.000;2023-11-19T15:00:35;95240.41;;;14.85
30001;BMP280;16845;48.670;9.000;2023-11-19T15:03:01;95234.44;;;14.70
30001;BMP280;16845;48.670;9.000;2023-11-19T15:05:28;95230.84;;;14.74
30001;BMP280;16845;48.670;9.000;2023-11-19T15:07:55;95233.59;;;14.36
30001;BMP280;16845;48.670;9.000;2023-11-19T15:10:21;95238.66;;;14.36
30001;BMP280;16845;48.670;9.000;2023-11-19T15:12:49;95237.88;;;14.17
30001;BMP280;16845;48.670;9.000;2023-11-19T15:15:16;95235.44;;;13.97
30001;BMP280;16845;48.670;9.000;2023-11-19T15:18:00;95237.88;;;14.17
30001;BMP280;16845;48.670;9.000;2023-11-19T15:20:27;95235.00;;;14.06
30001;BMP280;16845;48.670;9.000;2023-11-19T15:22:53;95227.66;;;14.20
30001;BMP280;16845;48.670;9.000;2023-11-19T15:25:20;95238.28;;;14.08
30001;BMP280;16845;48.670;9.000;2023-11-19T15:27:46;95241.41;;;14.13
30001;BMP280;16845;48.670;9.000;2023-11-19T15:30:15;95237.09;;;14.15
30001;BMP280;16845;48.670;9.000;2023-11-19T15:32:41;95235.53;;;14.12
30001;BMP280;16845;48.670;9.000;2023-11-19T15:35:08;95236.22;;;14.16
30001;BMP280;16845;48.670;9.000;2023-11-19T15:37:38;95233.72;;;13.98
30001;BMP280;16845;48.670;9.000;2023-11-19T15:40:07;95238.56;;;14.02
30001;BMP280;16845;48.670;9.000;2023-11-19T15:42:33;95247.25;;;13.78
30001;BMP280;16845;48.670;9.000;2023-11-19T15:45:00;95237.56;;;13.88
30001;BMP280;16845;48.670;9.000;2023-11-19T15:47:28;95236.78;;;13.69
30001;BMP280;16845;48.670;9.000;2023-11-19T15:49:55;95235.53;;;13.77
30001;BMP280;16845;48.670;9.000;2023-11-19T15:52:21;95236.28;;;13.79
30001;BMP280;16845;48.670;9.000;2023-11-19T15:54:48;95237.00;;;13.64
30001;BMP280;16845;48.670;9.000;2023-11-19T15:57:15;95237.88;;;13.63
30001;BMP280;16845;48.670;9.000;2023-11-19T15:59:41;95231.81;;;13.67
30001;BMP280;16845;48.670;9.000;2023-11-19T16:02:08;95229.59;;;13.78
30001;BMP280;16845;48.670;9.000;2023-11-19T16:04:36;95220.56;;;13.74
30001;BMP280;16845;48.670;9.000;2023-11-19T16:07:03;95230.03;;;13.69
30001;BMP280;16845;48.670;9.000;2023-11-19T16:09:29;95234.66;;;13.60
30001;BMP280;16845;48.670;9.000;2023-11-19T16:11:56;95228.53;;;13.47
30001;BMP280;16845;48.670;9.000;2023-11-19T16:14:22;95239.78;;;13.58
30001;BMP280;16845;48.670;9.000;2023-11-19T16:16:49;95238.19;;;13.37
30001;BMP280;16845;48.670;9.000;2023-11-19T16:19:16;95239.63;;;13.24
30001;BMP280;16845;48.670;9.000;2023-11-19T16:21:43;95245.56;;;13.03
30001;BMP280;16845;48.670;9.000;2023-11-19T16:24:13;95250.63;;;12.83
30001;BMP280;16845;48.670;9.000;2023-11-19T16:26:40;95257.69;;;12.95
30001;BMP280;16845;48.670;9.000;2023-11-19T16:29:06;95259.25;;;12.98
30001;BMP280;16845;48.670;9.000;2023-11-19T16:31:33;95263.41;;;12.79
30001;BMP280;16845;48.670;9.000;2023-11-19T16:33:59;95258.53;;;12.94
30001;BMP280;16845;48.670;9.000;2023-11-19T16:36:26;95249.47;;;13.10
30001;BMP280;16845;48.670;9.000;2023-11-19T16:38:54;95250.75;;;13.00
30001;BMP280;16845;48.670;9.000;2023-11-19T16:41:20;95261.44;;;12.85
30001;BMP280;16845;48.670;9.000;2023-11-19T16:43:58;95264.41;;;12.95
30001;BMP280;16845;48.670;9.000;2023-11-19T16:46:25;95272.34;;;13.06
30001;BMP280;16845;48.670;9.000;2023-11-19T16:48:51;95270.38;;;13.12
30001;BMP280;16845;48.670;9.000;2023-11-19T16:51:18;95270.38;;;13.12
30001;BMP280;16845;48.670;9.000;2023-11-19T16:53:45;95262.44;;;13.01
30001;BMP280;16845;48.670;9.000;2023-11-19T16:56:13;95259.38;;;12.95
30001;BMP280;16845;48.670;9.000;2023-11-19T16:58:40;95264.28;;;12.98
30001;BMP280;16845;48.670;9.000;2023-11-19T17:01:07;95256.47;;;12.84
30001;BMP280;16845;48.670;9.000;2023-11-19T17:03:33;95262.81;;;12.92
30001;BMP280;16845;48.670;9.000;2023-11-19T17:06:00;95264.16;;;12.81
30001;BMP280;16845;48.670;9.000;2023-11-19T17:08:27;95272.88;;;12.92
30001;BMP280;16845;48.670;9.000;2023-11-19T17:10:53;95263.19;;;13.03
30001;BMP280;16845;48.670;9.000;2023-11-19T17:13:21;95266.22;;;12.91
30001;BMP280;16845;48.670;9.000;2023-11-19T17:15:48;95264.19;;;13.19
30001;BMP280;16845;48.670;9.000;2023-11-19T17:18:15;95272.72;;;12.97
30001;BMP280;16845;48.670;9.000;2023-11-19T17:20:41;95291.28;;;13.14
30001;BMP280;16845;48.670;9.000;2023-11-19T17:23:08;95276.06;;;12.97
30001;BMP280;16845;48.670;9.000;2023-11-19T17:25:34;95300.59;;;13.12
30001;BMP280;16845;48.670;9.000;2023-11-19T17:28:01;95299.47;;;13.19
30001;BMP280;16845;48.670;9.000;2023-11-19T17:30:29;95310.06;;;13.07
30001;BMP280;16845;48.670;9.000;2023-11-19T17:32:55;95305.41;;;12.98
30001;BMP280;16845;48.670;9.000;2023-11-19T17:35:22;95309.78;;;13.13
30001;BMP280;16845;48.670;9.000;2023-11-19T17:37:48;95304.31;;;13.04
30001;BMP280;16845;48.670;9.000;2023-11-19T17:40:15;95301.81;;;13.04
30001;BMP280;16845;48.670;9.000;2023-11-19T17:42:42;95301.72;;;13.05
30001;BMP280;16845;48.670;9.000;2023-11-19T17:45:09;95306.84;;;13.24
30001;BMP280;16845;48.670;9.000;2023-11-19T17:47:37;95300.75;;;13.09
30001;BMP280;16845;48.670;9.000;2023-11-19T17:50:04;95304.38;;;13.22
30001;BMP280;16845;48.670;9.000;2023-11-19T17:52:51;95309.03;;;13.11
30001;BMP280;16845;48.670;9.000;2023-11-19T17:55:17;95305.59;;;13.14
30001;BMP280;16845;48.670;9.000;2023-11-19T17:57:44;95296.38;;;12.93
30001;BMP280;16845;48.670;9.000;2023-11-19T18:00:11;95307.59;;;13.06
30001;BMP280;16845;48.670;9.000;2023-11-19T18:02:39;95314.81;;;12.93
30001;BMP280;16845;48.670;9.000;2023-11-19T18:05:09;95311.06;;;13.03
30001;BMP280;16845;48.670;9.000;2023-11-19T18:07:36;95306.66;;;13.08
30001;BMP280;16845;48.670;9.000;2023-11-19T18:10:03;95305.44;;;13.17
30001;BMP280;16845;48.670;9.000;2023-11-19T18:12:29;95305.44;;;13.17
30001;BMP280;16845;48.670;9.000;2023-11-19T18:14:56;95304.50;;;13.19
30001;BMP280;16845;48.670;9.000;2023-11-19T18:17:23;95303.69;;;13.19
30001;BMP280;16845;48.670;9.000;2023-11-19T18:19:50;95307.91;;;13.18
30001;BMP280;16845;48.670;9.000;2023-11-19T18:22:17;95315.75;;;13.11
30001;BMP280;16845;48.670;9.000;2023-11-19T18:24:44;95309.38;;;12.82
30001;BMP280;16845;48.670;9.000;2023-11-19T18:27:11;95304.47;;;13.01
30001;BMP280;16845;48.670;9.000;2023-11-19T18:29:37;95311.53;;;12.91
30001;BMP280;16845;48.670;9.000;2023-11-19T18:32:04;95309.66;;;12.76
30001;BMP280;16845;48.670;9.000;2023-11-19T18:34:31;95306.63;;;12.88
30001;BMP280;16845;48.670;9.000;2023-11-19T18:36:59;95302.72;;;12.81
30001;BMP280;16845;48.670;9.000;2023-11-19T18:39:25;95303.41;;;12.85
30001;BMP280;16845;48.670;9.000;2023-11-19T18:41:52;95297.56;;;12.84
30001;BMP280;16845;48.670;9.000;2023-11-19T18:44:18;95312.34;;;12.72
30001;BMP280;16845;48.670;9.000;2023-11-19T18:46:45;95296.31;;;12.74
30001;BMP280;16845;48.670;9.000;2023-11-19T18:49:11;95304.28;;;12.64
30001;BMP280;16845;48.670;9.000;2023-11-19T18:51:38;95299.81;;;12.70
30001;BMP280;16845;48.670;9.000;2023-11-19T18:54:06;95297.69;;;12.61
30001;BMP280;16845;48.670;9.000;2023-11-19T18:56:32;95294.22;;;12.44
30001;BMP280;16845;48.670;9.000;2023-11-19T18:58:59;95282.94;;;12.52
30001;BMP280;16845;48.670;9.000;2023-11-19T19:01:26;95295.28;;;12.38
30001;BMP280;16845;48.670;9.000;2023-11-19T19:03:52;95297.78;;;12.38
30001;BMP280;16845;48.670;9.000;2023-11-19T19:06:19;95309.63;;;12.56
30001;BMP280;16845;48.670;9.000;2023-11-19T19:08:45;95310.38;;;12.58
30001;BMP280;16845;48.670;9.000;2023-11-19T19:11:13;95306.78;;;12.44
30001;BMP280;16845;48.670;9.000;2023-11-19T19:13:40;95304.41;;;12.61
30001;BMP280;16845;48.670;9.000;2023-11-19T19:16:07;95311.44;;;12.53
30001;BMP280;16845;48.670;9.000;2023-11-19T19:18:34;95306.88;;;12.62
30001;BMP280;16845;48.670;9.000;2023-11-19T19:21:00;95301.19;;;12.57
30001;BMP280;16845;48.670;9.000;2023-11-19T19:23:27;95306.22;;;12.57
30001;BMP280;16845;48.670;9.000;2023-11-19T19:25:53;95303.09;;;12.52
30001;BMP280;16845;48.670;9.000;2023-11-19T19:28:22;95302.50;;;12.66
30001;BMP280;16845;48.670;9.000;2023-11-19T19:30:49;95308.38;;;12.66
30001;BMP280;16845;48.670;9.000;2023-11-19T19:33:15;95316.06;;;12.63
30001;BMP280;16845;48.670;9.000;2023-11-19T19:35:42;95315.69;;;12.72
30001;BMP280;16845;48.670;9.000;2023-11-19T19:38:08;95323.91;;;12.76
30001;BMP280;16845;48.670;9.000;2023-11-19T19:40:35;95329.91;;;12.73
30001;BMP280;16845;48.670;9.000;2023-11-19T19:43:02;95328.91;;;12.77
30001;BMP280;16845;48.670;9.000;2023-11-19T19:45:30;95334.31;;;12.88
30001;BMP280;16845;48.670;9.000;2023-11-19T19:47:58;95330.88;;;13.11
30001;BMP280;16845;48.670;9.000;2023-11-19T19:50:25;95348.47;;;13.12
30001;BMP280;16845;48.670;9.000;2023-11-19T19:52:52;95360.16;;;13.33
30001;BMP280;16845;48.670;9.000;2023-11-19T19:55:19;95354.69;;;13.24
30001;BMP280;16845;48.670;9.000;2023-11-19T19:57:45;95364.31;;;13.34
30001;BMP280;16845;48.670;9.000;2023-11-19T20:00:13;95352.56;;;13.35
30001;BMP280;16845;48.670;9.000;2023-11-19T20:02:43;95358.47;;;12.94
30001;BMP280;16845;48.670;9.000;2023-11-19T20:05:11;95357.88;;;12.87
30001;BMP280;16845;48.670;9.000;2023-11-19T20:07:38;95357.44;;;12.78
30001;BMP280;16845;48.670;9.000;2023-11-19T20:10:06;95371.13;;;12.71
30001;BMP280;16845;48.670;9.000;2023-11-19T20:12:32;95364.09;;;12.79
30001;BMP280;16845;48.670;9.000;2023-11-19T20:14:59;95370.19;;;12.73
30001;BMP280;16845;48.670;9.000;2023-11-19T20:17:26;95374.44;;;12.71
30001;BMP280;16845;48.670;9.000;2023-11-19T20:19:53;95377.66;;;12.55
30001;BMP280;16845;48.670;9.000;2023-11-19T20:22:20;95384.59;;;12.70
30001;BMP280;16845;48.670;9.000;2023-11-19T20:24:47;95378.38;;;12.78
30001;BMP280;16845;48.670;9.000;2023-11-19T20:27:13;95402.13;;;12.71
30001;BMP280;16845;48.670;9.000;2023-11-19T20:29:40;95396.00;;;12.78
30001;BMP280;16845;48.670;9.000;2023-11-19T20:32:06;95380.66;;;12.84
30001;BMP280;16845;48.670;9.000;2023-11-19T20:34:33;95392.94;;;12.70
30001;BMP280;16845;48.670;9.000;2023-11-19T20:37:01;95391.22;;;12.92
30001;BMP280;16845;48.670;9.000;2023-11-19T20:39:27;95399.66;;;12.91
30001;BMP280;16845;48.670;9.000;2023-11-19T20:41:54;95401.00;;;13.00
30001;BMP280;16845;48.670;9.000;2023-11-19T20:44:21;95405.31;;;12.76
30001;BMP280;16845;48.670;9.000;2023-11-19T20:46:47;95408.44;;;12.81
30001;BMP280;16845;48.670;9.000;2023-11-19T20:49:14;95409.69;;;12.71
30001;BMP280;16845;48.670;9.000;2023-11-19T20:51:40;95409.31;;;12.60
30001;BMP280;16845;48.670;9.000;2023-11-19T20:54:08;95414.09;;;12.66
30001;BMP280;16845;48.670;9.000;2023-11-19T20:56:35;95407.72;;;12.58
30001;BMP280;16845;48.670;9.000;2023-11-19T20:59:02;95411.13;;;12.57
30001;BMP280;16845;48.670;9.000;2023-11-19T21:01:28;95418.41;;;12.63
30001;BMP280;16845;48.670;9.000;2023-11-19T21:03:55;95423.00;;;12.53
30001;BMP280;16845;48.670;9.000;2023-11-19T21:06:21;95414.56;;;12.33
30001;BMP280;16845;48.670;9.000;2023-11-19T21:08:48;95419.09;;;12.00
30001;BMP280;16845;48.670;9.000;2023-11-19T21:11:16;95420.09;;;11.96
30001;BMP280;16845;48.670;9.000;2023-11-19T21:13:43;95413.56;;;11.92
30001;BMP280;16845;48.670;9.000;2023-11-19T21:16:10;95418.59;;;11.92
30001;BMP280;16845;48.670;9.000;2023-11-19T21:18:36;95402.38;;;11.76
30001;BMP280;16845;48.670;9.000;2023-11-19T21:21:03;95406.22;;;11.86
30001;BMP280;16845;48.670;9.000;2023-11-19T21:23:30;95416.66;;;11.76
30001;BMP280;16845;48.670;9.000;2023-11-19T21:25:57;95432.94;;;11.66
30001;BMP280;16845;48.670;9.000;2023-11-19T21:28:25;95420.56;;;11.60
30001;BMP280;16845;48.670;9.000;2023-11-19T21:30:54;95416.88;;;11.70
30001;BMP280;16845;48.670;9.000;2023-11-19T21:33:21;95412.47;;;11.75
30001;BMP280;16845;48.670;9.000;2023-11-19T21:35:48;95419.84;;;11.57
30001;BMP280;16845;48.670;9.000;2023-11-19T21:38:14;95415.66;;;11.56
30001;BMP280;16845;48.670;9.000;2023-11-19T21:40:41;95416.66;;;11.52
30001;BMP280;16845;48.670;9.000;2023-11-19T21:43:07;95417.06;;;11.40
30001;BMP280;16845;48.670;9.000;2023-11-19T21:45:35;95417.47;;;11.28
30001;BMP280;16845;48.670;9.000;2023-11-19T21:48:02;95419.63;;;11.14
30001;BMP280;16845;48.670;9.000;2023-11-19T21:50:29;95410.06;;;11.25
30001;BMP280;16845;48.670;9.000;2023-11-19T21:52:55;95408.00;;;11.36
30001;BMP280;16845;48.670;9.000;2023-11-19T21:55:22;95399.22;;;11.23
30001;BMP280;16845;48.670;9.000;2023-11-19T21:57:48;95399.13;;;11.01
30001;BMP280;16845;48.670;9.000;2023-11-19T22:00:15;95403.22;;;11.04
30001;BMP280;16845;48.670;9.000;2023-11-19T22:02:43;95400.84;;;10.99
30001;BMP280;16845;48.670;9.000;2023-11-19T22:05:10;95403.31;;;11.01
30001;BMP280;16845;48.670;9.000;2023-11-19T22:07:37;95396.97;;;11.15
30001;BMP280;16845;48.670;9.000;2023-11-19T22:10:04;95400.97;;;10.96
30001;BMP280;16845;48.670;9.000;2023-11-19T22:12:31;95398.28;;;11.01
30001;BMP280;16845;48.670;9.000;2023-11-19T22:14:57;95393.88;;;10.83
30001;BMP280;16845;48.670;9.000;2023-11-19T22:17:24;95394.81;;;11.05
30001;BMP280;16845;48.670;9.000;2023-11-19T22:19:52;95382.66;;;10.93
30001;BMP280;16845;48.670;9.000;2023-11-19T22:22:18;95398.06;;;11.08
30001;BMP280;16845;48.670;9.000;2023-11-19T22:24:45;95389.03;;;11.03
30001;BMP280;16845;48.670;9.000;2023-11-19T22:27:11;95383.06;;;11.05
30001;BMP280;16845;48.670;9.000;2023-11-19T22:29:38;95381.09;;;10.89
30001;BMP280;16845;48.670;9.000;2023-11-19T22:32:05;95380.78;;;10.99
30001;BMP280;16845;48.670;9.000;2023-11-19T22:34:32;95384.78;;;11.05
30001;BMP280;16845;48.670;9.000;2023-11-19T22:37:00;95385.06;;;10.96
30001;BMP280;16845;48.670;9.000;2023-11-19T22:39:26;95382.84;;;10.87
30001;BMP280;16845;48.670;9.000;2023-11-19T22:41:53;95361.69;;;10.69
30001;BMP280;16845;48.670;9.000;2023-11-19T22:44:20;95373.78;;;10.83
30001;BMP280;16845;48.670;9.000;2023-11-19T22:46:46;95369.25;;;10.94
30001;BMP280;16845;48.670;9.000;2023-11-19T22:49:13;95376.81;;;10.92
30001;BMP280;16845;48.670;9.000;2023-11-19T22:51:39;95371.88;;;10.91
30001;BMP280;16845;48.670;9.000;2023-11-19T22:54:07;95377.19;;;11.06
30001;BMP280;16845;48.670;9.000;2023-11-19T22:56:34;95375.28;;;10.88
30001;BMP280;16845;48.670;9.000;2023-11-19T22:59:01;95385.28;;;11.14
30001;BMP280;16845;48.670;9.000;2023-11-19T23:01:27;95369.66;;;10.82
30001;BMP280;16845;48.670;9.000;2023-11-19T23:03:54;95375.91;;;10.95
30001;BMP280;16845;48.670;9.000;2023-11-19T23:06:21;95382.72;;;10.91
30001;BMP280;16845;48.670;9.000;2023-11-19T23:08:47;95390.59;;;10.81
30001;BMP280;16845;48.670;9.000;2023-11-19T23:11:17;95385.84;;;10.98
30001;BMP280;16845;48.670;9.000;2023-11-19T23:13:44;95383.09;;;10.79
30001;BMP280;16845;48.670;9.000;2023-11-19T23:16:10;95381.47;;;10.78
30001;BMP280;16845;48.670;9.000;2023-11-19T23:18:37;95394.13;;;11.00
30001;BMP280;16845;48.670;9.000;2023-11-19T23:21:04;95393.66;;;10.89
30001;BMP280;16845;48.670;9.000;2023-11-19T23:23:30;95391.06;;;10.92
30001;BMP280;16845;48.670;9.000;2023-11-19T23:25:57;95392.97;;;11.10
30001;BMP280;16845;48.670;9.000;2023-11-19T23:28:25;95388.47;;;11.19
30001;BMP280;16845;48.670;9.000;2023-11-19T23:30:51;95384.88;;;11.26
30001;BMP280;16845;48.670;9.000;2023-11-19T23:33:18;95390.31;;;11.14
30001;BMP280;16845;48.670;9.000;2023-11-19T23:35:44;95387.28;;;11.05
30001;BMP280;16845;48.670;9.000;2023-11-19T23:38:11;95387.41;;;11.02
30001;BMP280;16845;48.670;9.000;2023-11-19T23:40:37;95379.69;;;10.82
30001;BMP280;16845;48.670;9.000;2023-11-19T23:43:04;95376.47;;;11.03
30001;BMP280;16845;48.670;9.000;2023-11-19T23:45:32;95376.25;;;11.09
30001;BMP280;16845;48.670;9.000;2023-11-19T23:47:59;95371.53;;;11.00
30001;BMP280;16845;48.670;9.000;2023-11-19T23:50:25;95365.56;;;11.04
30001;BMP280;16845;48.670;9.000;2023-11-19T23:52:52;95373.09;;;11.04
30001;BMP280;16845;48.670;9.000;2023-11-19T23:55:18;95369.00;;;11.01
30001;BMP280;16845;48.670;9.000;2023-11-19T23:57:45;95378.31;;;10.98
